sensor_id;sensor_type;location;lat;lon;timestamp;noise_LAeq;noise_LA_min;noise_LA_max;noise_LA01;noise_LA95
64545;Laerm;50936;51.660;5.616;2022-08-19T00:02:11;51.64;40.98;71.26;;
64545;Laerm;50936;51.660;5.616;2022-08-19T00:04:38;42.76;40.62;47.98;;
64545;Laerm;50936;51.660;5.616;2022-08-19T00:07:07;50.32;40.62;71.55;;
64545;Laerm;50936;51.660;5.616;2022-08-19T00:09:34;48.04;40.89;63.45;;
64545;Laerm;50936;51.660;5.616;2022-08-19T00:12:01;43.63;40.80;53.13;;
64545;Laerm;50936;51.660;5.616;2022-08-19T00:14:29;42.44;40.71;43.68;;
64545;Laerm;50936;51.660;5.616;2022-08-19T00:17:00;42.66;40.53;48.71;;
64545;Laerm;50936;51.660;5.616;2022-08-19T00:19:28;50.04;41.22;69.63;;
64545;Laerm;50936;51.660;5.616;2022-08-19T00:21:55;43.45;40.71;61.05;;
64545;Laerm;50936;51.660;5.616;2022-08-19T00:24:24;44.10;40.63;66.14;;
64545;Laerm;50936;51.660;5.616;2022-08-19T00:26:52;42.41;40.53;46.71;;
64545;Laerm;50936;51.660;5.616;2022-08-19T00:29:21;42.44;40.23;43.72;;
64545;Laerm;50936;51.660;5.616;2022-08-19T00:31:48;43.80;40.89;59.28;;
64545;Laerm;50936;51.660;5.616;2022-08-19T00:34:17;53.07;40.98;69.68;;
64545;Laerm;50936;51.660;5.616;2022-08-19T00:36:44;43.23;40.88;54.47;;
64545;Laerm;50936;51.660;5.616;2022-08-19T00:39:14;48.14;40.71;61.90;;
64545;Laerm;50936;51.660;5.616;2022-08-19T00:41:44;43.03;41.22;47.48;;
64545;Laerm;50936;51.660;5.616;2022-08-19T00:44:20;46.91;41.22;60.61;;
64545;Laerm;50936;51.660;5.616;2022-08-19T00:46:56;43.39;41.06;50.00;;
64545;Laerm;50936;51.660;5.616;2022-08-19T00:49:43;43.09;40.98;49.62;;
64545;Laerm;50936;51.660;5.616;2022-08-19T00:52:22;43.24;41.30;56.75;;
64545;Laerm;50936;51.660;5.616;2022-08-19T00:54:51;56.32;41.38;76.11;;
64545;Laerm;50936;51.660;5.616;2022-08-19T00:57:28;46.64;40.62;58.92;;
64545;Laerm;50936;51.660;5.616;2022-08-19T00:59:58;49.53;41.38;63.49;;
64545;Laerm;50936;51.660;5.616;2022-08-19T01:02:30;51.19;41.06;63.04;;
64545;Laerm;50936;51.660;5.616;2022-08-19T01:05:01;43.07;41.22;47.88;;
64545;Laerm;50936;51.660;5.616;2022-08-19T01:07:28;43.40;40.62;52.79;;
64545;Laerm;50936;51.660;5.616;2022-08-19T01:10:08;48.09;40.89;62.49;;
64545;Laerm;50936;51.660;5.616;2022-08-19T01:12:35;42.50;40.62;48.85;;
64545;Laerm;50936;51.660;5.616;2022-08-19T01:15:06;42.62;40.88;46.50;;
64545;Laerm;50936;51.660;5.616;2022-08-19T01:17:38;42.54;40.89;56.44;;
64545;Laerm;50936;51.660;5.616;2022-08-19T01:20:10;42.43;40.71;43.63;;
64545;Laerm;50936;51.660;5.616;2022-08-19T01:22:47;42.54;40.88;44.31;;
64545;Laerm;50936;51.660;5.616;2022-08-19T01:25:20;42.44;40.71;43.94;;
64545;Laerm;50936;51.660;5.616;2022-08-19T01:27:51;47.74;40.80;61.15;;
64545;Laerm;50936;51.660;5.616;2022-08-19T01:30:25;53.70;40.62;72.98;;
64545;Laerm;50936;51.660;5.616;2022-08-19T01:32:54;48.96;41.14;66.48;;
64545;Laerm;50936;51.660;5.616;2022-08-19T01:35:24;42.91;41.06;49.33;;
64545;Laerm;50936;51.660;5.616;2022-08-19T01:38:02;42.48;40.71;48.10;;
64545;Laerm;50936;51.660;5.616;2022-08-19T01:40:38;50.42;41.06;66.14;;
64545;Laerm;50936;51.660;5.616;2022-08-19T01:43:06;47.95;41.30;61.24;;
64545;Laerm;50936;51.660;5.616;2022-08-19T01:45:34;43.11;40.89;53.57;;
64545;Laerm;50936;51.660;5.616;2022-08-19T01:48:03;47.94;41.14;64.38;;
64545;Laerm;50936;51.660;5.616;2022-08-19T01:50:33;42.66;40.98;45.20;;
64545;Laerm;50936;51.660;5.616;2022-08-19T01:53:03;42.67;40.98;51.41;;
64545;Laerm;50936;51.660;5.616;2022-08-19T01:55:40;51.83;41.22;68.51;;
64545;Laerm;50936;51.660;5.616;2022-08-19T01:58:19;42.69;40.98;49.58;;
64545;Laerm;50936;51.660;5.616;2022-08-19T02:00:48;48.91;41.14;65.67;;
64545;Laerm;50936;51.660;5.616;2022-08-19T02:03:16;46.79;41.06;61.19;;
64545;Laerm;50936;51.660;5.616;2022-08-19T02:05:44;42.75;40.98;48.26;;
64545;Laerm;50936;51.660;5.616;2022-08-19T02:08:11;48.59;41.06;64.35;;
64545;Laerm;50936;51.660;5.616;2022-08-19T02:10:41;42.72;40.79;47.22;;
64545;Laerm;50936;51.660;5.616;2022-08-19T02:13:11;42.72;41.30;44.23;;
64545;Laerm;50936;51.660;5.616;2022-08-19T02:15:39;42.60;41.06;46.33;;
64545;Laerm;50936;51.660;5.616;2022-08-19T02:18:06;53.50;41.30;70.47;;
64545;Laerm;50936;51.660;5.616;2022-08-19T02:20:36;47.75;41.38;73.29;;
64545;Laerm;50936;51.660;5.616;2022-08-19T02:23:04;44.11;41.22;65.20;;
64545;Laerm;50936;51.660;5.616;2022-08-19T02:25:39;43.65;41.06;50.72;;
64545;Laerm;50936;51.660;5.616;2022-08-19T02:28:07;43.60;41.38;50.48;;
64545;Laerm;50936;51.660;5.616;2022-08-19T02:30:34;42.91;41.46;48.01;;
64545;Laerm;50936;51.660;5.616;2022-08-19T02:33:01;50.98;41.22;65.96;;
64545;Laerm;50936;51.660;5.616;2022-08-19T02:35:28;54.28;41.30;69.52;;
64545;Laerm;50936;51.660;5.616;2022-08-19T02:37:55;49.98;41.30;72.65;;
64545;Laerm;50936;51.660;5.616;2022-08-19T02:40:46;48.60;41.46;62.38;;
64545;Laerm;50936;51.660;5.616;2022-08-19T02:43:16;42.89;41.30;44.43;;
64545;Laerm;50936;51.660;5.616;2022-08-19T02:45:43;50.66;41.53;64.94;;
64545;Laerm;50936;51.660;5.616;2022-08-19T02:48:10;50.90;41.46;64.10;;
64545;Laerm;50936;51.660;5.616;2022-08-19T02:50:50;42.80;41.22;44.35;;
64545;Laerm;50936;51.660;5.616;2022-08-19T02:53:24;43.33;41.53;48.80;;
64545;Laerm;50936;51.660;5.616;2022-08-19T02:55:53;43.02;41.30;48.78;;
64545;Laerm;50936;51.660;5.616;2022-08-19T02:58:21;44.70;41.38;55.94;;
64545;Laerm;50936;51.660;5.616;2022-08-19T03:00:55;55.58;41.53;68.46;;
64545;Laerm;50936;51.660;5.616;2022-08-19T03:03:22;50.42;41.30;66.37;;
64545;Laerm;50936;51.660;5.616;2022-08-19T03:05:50;43.38;41.46;51.56;;
64545;Laerm;50936;51.660;5.616;2022-08-19T03:08:24;52.50;41.38;68.14;;
64545;Laerm;50936;51.660;5.616;2022-08-19T03:10:53;51.76;41.38;64.79;;
64545;Laerm;50936;51.660;5.616;2022-08-19T03:13:20;43.58;41.38;50.88;;
64545;Laerm;50936;51.660;5.616;2022-08-19T03:15:48;43.74;41.30;50.46;;
64545;Laerm;50936;51.660;5.616;2022-08-19T03:18:16;56.68;41.41;75.51;;
64545;Laerm;50936;51.660;5.616;2022-08-19T03:20:48;49.69;41.68;66.05;;
64545;Laerm;50936;51.660;5.616;2022-08-19T03:23:16;50.52;41.46;65.58;;
64545;Laerm;50936;51.660;5.616;2022-08-19T03:25:47;50.30;41.89;72.76;;
64545;Laerm;50936;51.660;5.616;2022-08-19T03:28:34;44.42;41.46;58.92;;
64545;Laerm;50936;51.660;5.616;2022-08-19T03:31:10;55.83;42.35;72.43;;
64545;Laerm;50936;51.660;5.616;2022-08-19T03:33:58;52.66;41.89;65.52;;
64545;Laerm;50936;51.660;5.616;2022-08-19T03:36:26;49.03;41.68;62.30;;
64545;Laerm;50936;51.660;5.616;2022-08-19T03:38:59;43.22;41.61;51.35;;
64545;Laerm;50936;51.660;5.616;2022-08-19T03:41:31;44.52;41.68;66.39;;
64545;Laerm;50936;51.660;5.616;2022-08-19T03:44:12;47.69;41.30;61.50;;
64545;Laerm;50936;51.660;5.616;2022-08-19T03:46:45;54.50;41.30;70.73;;
64545;Laerm;50936;51.660;5.616;2022-08-19T03:49:12;49.76;41.75;64.37;;
64545;Laerm;50936;51.660;5.616;2022-08-19T03:51:41;50.22;41.38;66.29;;
64545;Laerm;50936;51.660;5.616;2022-08-19T03:54:13;44.68;41.61;54.75;;
64545;Laerm;50936;51.660;5.616;2022-08-19T03:56:45;44.52;41.30;59.54;;
64545;Laerm;50936;51.660;5.616;2022-08-19T03:59:19;56.43;41.75;71.79;;
64545;Laerm;50936;51.660;5.616;2022-08-19T04:01:47;49.52;41.68;65.53;;
64545;Laerm;50936;51.660;5.616;2022-08-19T04:04:14;45.80;41.75;55.42;;
64545;Laerm;50936;51.660;5.616;2022-08-19T04:06:41;57.61;44.94;72.97;;
64545;Laerm;50936;51.660;5.616;2022-08-19T04:09:11;45.45;41.61;56.75;;
64545;Laerm;50936;51.660;5.616;2022-08-19T04:11:50;53.87;42.29;67.67;;
64545;Laerm;50936;51.660;5.616;2022-08-19T04:14:27;53.76;42.65;66.40;;
64545;Laerm;50936;51.660;5.616;2022-08-19T04:16:59;59.03;41.75;74.17;;
64545;Laerm;50936;51.660;5.616;2022-08-19T04:19:29;54.72;41.46;68.26;;
64545;Laerm;50936;51.660;5.616;2022-08-19T04:21:56;48.70;42.64;61.53;;
64545;Laerm;50936;51.660;5.616;2022-08-19T04:24:23;51.19;41.96;64.93;;
64545;Laerm;50936;51.660;5.616;2022-08-19T04:26:50;52.72;42.03;73.96;;
64545;Laerm;50936;51.660;5.616;2022-08-19T04:29:24;56.08;42.16;74.02;;
64545;Laerm;50936;51.660;5.616;2022-08-19T04:31:55;52.40;42.47;66.12;;
64545;Laerm;50936;51.660;5.616;2022-08-19T04:34:26;52.08;42.88;70.21;;
64545;Laerm;50936;51.660;5.616;2022-08-19T04:36:56;48.97;42.35;65.77;;
64545;Laerm;50936;51.660;5.616;2022-08-19T04:39:30;53.47;42.53;67.49;;
64545;Laerm;50936;51.660;5.616;2022-08-19T04:42:18;55.39;42.59;70.14;;
64545;Laerm;50936;51.660;5.616;2022-08-19T04:45:09;54.73;42.29;66.66;;
64545;Laerm;50936;51.660;5.616;2022-08-19T04:47:42;57.03;42.71;68.66;;
64545;Laerm;50936;51.660;5.616;2022-08-19T04:50:26;53.26;42.59;78.14;;
64545;Laerm;50936;51.660;5.616;2022-08-19T04:52:53;53.45;43.24;70.75;;
64545;Laerm;50936;51.660;5.616;2022-08-19T04:55:22;57.64;42.41;69.66;;
64545;Laerm;50936;51.660;5.616;2022-08-19T04:57:54;53.70;42.35;68.17;;
64545;Laerm;50936;51.660;5.616;2022-08-19T05:00:21;54.33;42.90;68.96;;
64545;Laerm;50936;51.660;5.616;2022-08-19T05:02:48;55.86;43.39;67.52;;
64545;Laerm;50936;51.660;5.616;2022-08-19T05:05:17;56.67;43.29;68.56;;
64545;Laerm;50936;51.660;5.616;2022-08-19T05:07:44;58.14;42.65;72.55;;
64545;Laerm;50936;51.660;5.616;2022-08-19T05:10:11;63.67;43.94;88.98;;
64545;Laerm;50936;51.660;5.616;2022-08-19T05:12:39;51.48;43.39;63.21;;
64545;Laerm;50936;51.660;5.616;2022-08-19T05:15:07;54.55;43.19;67.41;;
64545;Laerm;50936;51.660;5.616;2022-08-19T05:17:35;53.79;42.71;67.56;;
64545;Laerm;50936;51.660;5.616;2022-08-19T05:20:07;57.85;43.34;71.67;;
64545;Laerm;50936;51.660;5.616;2022-08-19T05:22:53;61.49;43.63;77.55;;
64545;Laerm;50936;51.660;5.616;2022-08-19T05:25:21;56.84;44.97;66.58;;
64545;Laerm;50936;51.660;5.616;2022-08-19T05:27:48;56.06;42.82;68.63;;
64545;Laerm;50936;51.660;5.616;2022-08-19T05:30:16;55.20;43.19;77.36;;
64545;Laerm;50936;51.660;5.616;2022-08-19T05:32:44;58.04;43.72;82.13;;
64545;Laerm;50936;51.660;5.616;2022-08-19T05:35:11;54.71;43.86;66.06;;
64545;Laerm;50936;51.660;5.616;2022-08-19T05:37:39;58.10;44.27;68.17;;
64545;Laerm;50936;51.660;5.616;2022-08-19T05:40:10;58.92;43.14;71.88;;
64545;Laerm;50936;51.660;5.616;2022-08-19T05:42:37;57.36;43.04;69.69;;
64545;Laerm;50936;51.660;5.616;2022-08-19T05:45:06;60.08;45.23;71.73;;
64545;Laerm;50936;51.660;5.616;2022-08-19T05:47:33;58.53;46.43;69.53;;
64545;Laerm;50936;51.660;5.616;2022-08-19T05:50:08;62.29;43.58;78.58;;
64545;Laerm;50936;51.660;5.616;2022-08-19T05:52:37;58.07;44.97;67.19;;
64545;Laerm;50936;51.660;5.616;2022-08-19T05:55:09;58.57;44.90;71.18;;
64545;Laerm;50936;51.660;5.616;2022-08-19T05:57:37;60.05;44.65;74.22;;
64545;Laerm;50936;51.660;5.616;2022-08-19T06:00:06;60.50;45.66;73.02;;
64545;Laerm;50936;51.660;5.616;2022-08-19T06:02:37;56.37;43.60;66.56;;
64545;Laerm;50936;51.660;5.616;2022-08-19T06:05:06;53.82;44.73;68.00;;
64545;Laerm;50936;51.660;5.616;2022-08-19T06:07:33;57.99;45.01;69.25;;
64545;Laerm;50936;51.660;5.616;2022-08-19T06:10:09;58.74;44.07;73.60;;
64545;Laerm;50936;51.660;5.616;2022-08-19T06:12:37;56.15;43.09;70.28;;
64545;Laerm;50936;51.660;5.616;2022-08-19T06:15:10;60.38;45.27;71.63;;
64545;Laerm;50936;51.660;5.616;2022-08-19T06:17:38;58.60;44.39;81.05;;
64545;Laerm;50936;51.660;5.616;2022-08-19T06:20:10;57.50;45.51;73.31;;
64545;Laerm;50936;51.660;5.616;2022-08-19T06:22:41;59.37;48.58;73.36;;
64545;Laerm;50936;51.660;5.616;2022-08-19T06:25:09;61.61;46.57;75.71;;
64545;Laerm;50936;51.660;5.616;2022-08-19T06:27:36;58.13;47.40;67.94;;
64545;Laerm;50936;51.660;5.616;2022-08-19T06:30:18;55.31;45.17;74.15;;
64545;Laerm;50936;51.660;5.616;2022-08-19T06:32:45;59.18;46.13;73.55;;
64545;Laerm;50936;51.660;5.616;2022-08-19T06:35:12;58.24;44.76;75.87;;
64545;Laerm;50936;51.660;5.616;2022-08-19T06:40:11;59.06;44.83;70.54;;
64545;Laerm;50936;51.660;5.616;2022-08-19T06:42:39;57.92;45.20;73.24;;
64545;Laerm;50936;51.660;5.616;2022-08-19T06:45:22;61.27;47.08;78.55;;
64545;Laerm;50936;51.660;5.616;2022-08-19T06:47:52;58.39;45.99;73.74;;
64545;Laerm;50936;51.660;5.616;2022-08-19T06:50:24;57.19;45.07;66.20;;
64545;Laerm;50936;51.660;5.616;2022-08-19T06:52:52;64.05;45.86;81.84;;
64545;Laerm;50936;51.660;5.616;2022-08-19T06:55:19;58.67;45.69;69.15;;
64545;Laerm;50936;51.660;5.616;2022-08-19T06:57:46;61.07;47.83;77.37;;
64545;Laerm;50936;51.660;5.616;2022-08-19T07:00:15;61.37;46.71;74.87;;
64545;Laerm;50936;51.660;5.616;2022-08-19T07:02:43;58.79;46.02;68.24;;
64545;Laerm;50936;51.660;5.616;2022-08-19T07:05:22;64.01;45.51;90.04;;
64545;Laerm;50936;51.660;5.616;2022-08-19T07:07:49;56.49;44.47;72.68;;
64545;Laerm;50936;51.660;5.616;2022-08-19T07:10:17;60.52;48.43;76.58;;
64545;Laerm;50936;51.660;5.616;2022-08-19T07:12:45;57.32;45.01;75.78;;
64545;Laerm;50936;51.660;5.616;2022-08-19T07:15:12;61.18;46.48;72.56;;
64545;Laerm;50936;51.660;5.616;2022-08-19T07:17:39;61.25;49.35;73.82;;
64545;Laerm;50936;51.660;5.616;2022-08-19T07:20:09;66.09;45.51;83.43;;
64545;Laerm;50936;51.660;5.616;2022-08-19T07:22:38;61.85;47.90;76.97;;
64545;Laerm;50936;51.660;5.616;2022-08-19T07:25:09;61.50;46.80;77.23;;
64545;Laerm;50936;51.660;5.616;2022-08-19T07:27:36;58.53;45.39;69.60;;
64545;Laerm;50936;51.660;5.616;2022-08-19T07:30:08;58.11;44.19;69.13;;
64545;Laerm;50936;51.660;5.616;2022-08-19T07:32:39;60.60;47.50;71.92;;
64545;Laerm;50936;51.660;5.616;2022-08-19T07:35:07;60.61;46.80;75.90;;
64545;Laerm;50936;51.660;5.616;2022-08-19T07:37:34;68.70;46.87;91.76;;
64545;Laerm;50936;51.660;5.616;2022-08-19T07:40:07;59.77;46.96;72.80;;
64545;Laerm;50936;51.660;5.616;2022-08-19T07:42:34;59.64;46.80;70.09;;
64545;Laerm;50936;51.660;5.616;2022-08-19T07:45:03;61.68;46.40;76.35;;
64545;Laerm;50936;51.660;5.616;2022-08-19T07:47:30;62.83;49.00;75.92;;
64545;Laerm;50936;51.660;5.616;2022-08-19T07:50:18;63.62;50.01;80.53;;
64545;Laerm;50936;51.660;5.616;2022-08-19T07:52:47;60.42;47.52;78.63;;
64545;Laerm;50936;51.660;5.616;2022-08-19T07:55:22;62.25;47.06;71.45;;
64545;Laerm;50936;51.660;5.616;2022-08-19T07:58:11;61.44;53.00;73.60;;
64545;Laerm;50936;51.660;5.616;2022-08-19T08:00:41;61.08;48.85;74.19;;
64545;Laerm;50936;51.660;5.616;2022-08-19T08:03:08;60.89;50.28;73.61;;
64545;Laerm;50936;51.660;5.616;2022-08-19T08:05:35;61.69;45.25;79.76;;
64545;Laerm;50936;51.660;5.616;2022-08-19T08:08:20;61.75;47.32;87.20;;
64545;Laerm;50936;51.660;5.616;2022-08-19T08:11:19;62.86;48.85;76.32;;
64545;Laerm;50936;51.660;5.616;2022-08-19T08:13:49;63.64;50.59;74.86;;
64545;Laerm;50936;51.660;5.616;2022-08-19T08:16:38;58.98;47.67;72.06;;
64545;Laerm;50936;51.660;5.616;2022-08-19T08:19:14;61.17;48.99;71.00;;
64545;Laerm;50936;51.660;5.616;2022-08-19T08:21:56;60.94;49.91;71.11;;
64545;Laerm;50936;51.660;5.616;2022-08-19T08:24:27;63.64;47.36;77.53;;
64545;Laerm;50936;51.660;5.616;2022-08-19T08:26:59;61.31;48.85;70.11;;
64545;Laerm;50936;51.660;5.616;2022-08-19T08:29:29;62.09;48.25;72.17;;
64545;Laerm;50936;51.660;5.616;2022-08-19T08:32:01;61.30;48.13;77.31;;
64545;Laerm;50936;51.660;5.616;2022-08-19T08:34:28;64.40;49.32;82.37;;
64545;Laerm;50936;51.660;5.616;2022-08-19T08:36:55;60.05;47.82;71.78;;
64545;Laerm;50936;51.660;5.616;2022-08-19T08:39:22;63.54;48.48;75.66;;
64545;Laerm;50936;51.660;5.616;2022-08-19T08:42:08;63.22;52.85;78.29;;
64545;Laerm;50936;51.660;5.616;2022-08-19T08:45:03;61.72;48.92;72.66;;
64545;Laerm;50936;51.660;5.616;2022-08-19T08:47:38;63.02;53.93;73.80;;
64545;Laerm;50936;51.660;5.616;2022-08-19T08:50:17;60.90;49.93;71.75;;
64545;Laerm;50936;51.660;5.616;2022-08-19T08:52:52;64.08;51.82;82.23;;
64545;Laerm;50936;51.660;5.616;2022-08-19T08:55:26;63.19;51.41;79.36;;
64545;Laerm;50936;51.660;5.616;2022-08-19T08:58:25;63.81;52.20;75.40;;
64545;Laerm;50936;51.660;5.616;2022-08-19T09:00:55;63.59;49.78;76.13;;
64545;Laerm;50936;51.660;5.616;2022-08-19T09:03:26;63.11;53.07;76.14;;
64545;Laerm;50936;51.660;5.616;2022-08-19T09:06:07;63.56;50.70;77.47;;
64545;Laerm;50936;51.660;5.616;2022-08-19T09:09:04;62.49;50.28;82.85;;
64545;Laerm;50936;51.660;5.616;2022-08-19T09:14:47;63.27;52.46;72.67;;
64545;Laerm;50936;51.660;5.616;2022-08-19T09:17:22;61.26;50.79;72.97;;
64545;Laerm;50936;51.660;5.616;2022-08-19T09:22:39;60.99;50.40;74.16;;
64545;Laerm;50936;51.660;5.616;2022-08-19T09:25:09;63.09;52.10;73.83;;
64545;Laerm;50936;51.660;5.616;2022-08-19T09:27:41;64.34;52.71;84.51;;
64545;Laerm;50936;51.660;5.616;2022-08-19T09:30:26;65.07;48.88;81.94;;
64545;Laerm;50936;51.660;5.616;2022-08-19T09:32:57;63.05;50.85;76.88;;
64545;Laerm;50936;51.660;5.616;2022-08-19T09:35:29;60.97;47.46;85.41;;
64545;Laerm;50936;51.660;5.616;2022-08-19T09:37:58;61.34;48.96;70.20;;
64545;Laerm;50936;51.660;5.616;2022-08-19T09:40:28;61.85;48.25;78.17;;
64545;Laerm;50936;51.660;5.616;2022-08-19T09:42:57;61.83;52.15;74.74;;
64545;Laerm;50936;51.660;5.616;2022-08-19T09:45:35;61.24;52.19;73.51;;
64545;Laerm;50936;51.660;5.616;2022-08-19T09:48:02;66.03;51.18;88.16;;
64545;Laerm;50936;51.660;5.616;2022-08-19T09:50:29;65.75;51.11;88.02;;
64545;Laerm;50936;51.660;5.616;2022-08-19T09:53:00;64.35;54.96;79.30;;
64545;Laerm;50936;51.660;5.616;2022-08-19T09:55:27;62.96;53.65;77.35;;
64545;Laerm;50936;51.660;5.616;2022-08-19T09:58:03;66.43;51.27;89.07;;
64545;Laerm;50936;51.660;5.616;2022-08-19T10:00:30;62.36;48.71;70.24;;
64545;Laerm;50936;51.660;5.616;2022-08-19T10:02:58;61.61;51.98;69.06;;
64545;Laerm;50936;51.660;5.616;2022-08-19T10:05:25;62.57;48.37;78.75;;
64545;Laerm;50936;51.660;5.616;2022-08-19T10:08:21;64.97;48.28;78.45;;
64545;Laerm;50936;51.660;5.616;2022-08-19T10:10:53;65.37;52.81;77.61;;
64545;Laerm;50936;51.660;5.616;2022-08-19T10:13:26;61.82;50.24;73.82;;
64545;Laerm;50936;51.660;5.616;2022-08-19T10:15:57;62.66;50.81;76.03;;
64545;Laerm;50936;51.660;5.616;2022-08-19T10:18:28;62.90;51.56;72.50;;
64545;Laerm;50936;51.660;5.616;2022-08-19T10:21:16;63.46;50.58;76.72;;
64545;Laerm;50936;51.660;5.616;2022-08-19T10:23:47;62.46;53.79;75.81;;
64545;Laerm;50936;51.660;5.616;2022-08-19T10:26:23;61.13;48.78;71.36;;
64545;Laerm;50936;51.660;5.616;2022-08-19T10:28:53;64.29;49.57;79.34;;
64545;Laerm;50936;51.660;5.616;2022-08-19T10:31:26;61.36;49.90;75.88;;
64545;Laerm;50936;51.660;5.616;2022-08-19T10:34:13;62.38;52.65;80.78;;
64545;Laerm;50936;51.660;5.616;2022-08-19T10:36:54;63.39;49.74;76.48;;
64545;Laerm;50936;51.660;5.616;2022-08-19T10:39:33;61.17;51.53;70.47;;
64545;Laerm;50936;51.660;5.616;2022-08-19T10:42:09;62.52;51.13;75.26;;
64545;Laerm;50936;51.660;5.616;2022-08-19T10:44:41;59.50;50.61;73.66;;
64545;Laerm;50936;51.660;5.616;2022-08-19T10:47:08;64.69;52.96;80.88;;
64545;Laerm;50936;51.660;5.616;2022-08-19T10:49:54;65.16;53.87;81.85;;
64545;Laerm;50936;51.660;5.616;2022-08-19T10:52:46;62.80;50.73;85.00;;
64545;Laerm;50936;51.660;5.616;2022-08-19T10:55:22;65.81;54.40;82.44;;
64545;Laerm;50936;51.660;5.616;2022-08-19T10:58:13;65.52;55.17;81.15;;
64545;Laerm;50936;51.660;5.616;2022-08-19T11:00:41;63.27;52.36;73.51;;
64545;Laerm;50936;51.660;5.616;2022-08-19T11:03:10;62.96;47.20;84.72;;
64545;Laerm;50936;51.660;5.616;2022-08-19T11:05:37;65.33;51.88;83.41;;
64545;Laerm;50936;51.660;5.616;2022-08-19T11:08:07;63.10;49.29;77.12;;
64545;Laerm;50936;51.660;5.616;2022-08-19T11:10:52;64.26;49.79;92.86;;
64545;Laerm;50936;51.660;5.616;2022-08-19T11:13:24;63.88;51.45;80.91;;
64545;Laerm;50936;51.660;5.616;2022-08-19T11:16:06;63.76;51.55;87.19;;
64545;Laerm;50936;51.660;5.616;2022-08-19T11:18:40;64.35;53.35;94.17;;
64545;Laerm;50936;51.660;5.616;2022-08-19T11:21:17;64.68;56.36;81.97;;
64545;Laerm;50936;51.660;5.616;2022-08-19T11:23:48;65.23;51.20;82.57;;
64545;Laerm;50936;51.660;5.616;2022-08-19T11:26:18;67.44;50.23;96.12;;
64545;Laerm;50936;51.660;5.616;2022-08-19T11:28:45;64.56;55.54;75.86;;
64545;Laerm;50936;51.660;5.616;2022-08-19T11:31:19;63.68;52.74;79.53;;
64545;Laerm;50936;51.660;5.616;2022-08-19T11:33:49;64.90;54.13;75.62;;
64545;Laerm;50936;51.660;5.616;2022-08-19T11:36:21;66.25;53.79;76.75;;
64545;Laerm;50936;51.660;5.616;2022-08-19T11:38:49;62.94;52.94;73.17;;
64545;Laerm;50936;51.660;5.616;2022-08-19T11:41:19;65.55;50.06;84.78;;
64545;Laerm;50936;51.660;5.616;2022-08-19T11:43:46;62.39;50.26;78.56;;
64545;Laerm;50936;51.660;5.616;2022-08-19T11:46:16;62.26;50.68;75.17;;
64545;Laerm;50936;51.660;5.616;2022-08-19T11:48:44;63.82;49.49;72.95;;
64545;Laerm;50936;51.660;5.616;2022-08-19T11:51:15;62.14;48.58;72.93;;
64545;Laerm;50936;51.660;5.616;2022-08-19T11:53:42;62.75;51.16;74.71;;
64545;Laerm;50936;51.660;5.616;2022-08-19T11:56:09;64.78;54.43;82.89;;
64545;Laerm;50936;51.660;5.616;2022-08-19T11:58:36;62.84;52.86;79.86;;
64545;Laerm;50936;51.660;5.616;2022-08-19T12:01:09;61.74;53.21;73.84;;
64545;Laerm;50936;51.660;5.616;2022-08-19T12:03:38;65.89;53.99;79.08;;
64545;Laerm;50936;51.660;5.616;2022-08-19T12:06:09;63.54;50.35;85.47;;
64545;Laerm;50936;51.660;5.616;2022-08-19T12:08:36;63.41;52.38;73.91;;
64545;Laerm;50936;51.660;5.616;2022-08-19T12:11:04;63.78;50.29;73.36;;
64545;Laerm;50936;51.660;5.616;2022-08-19T12:13:32;61.81;48.15;69.17;;
64545;Laerm;50936;51.660;5.616;2022-08-19T12:15:59;63.38;51.70;87.22;;
64545;Laerm;50936;51.660;5.616;2022-08-19T12:18:26;64.69;51.77;75.08;;
64545;Laerm;50936;51.660;5.616;2022-08-19T12:20:53;65.21;52.08;80.99;;
64545;Laerm;50936;51.660;5.616;2022-08-19T12:23:23;65.25;49.96;80.96;;
64545;Laerm;50936;51.660;5.616;2022-08-19T12:25:50;62.63;51.69;75.14;;
64545;Laerm;50936;51.660;5.616;2022-08-19T12:28:19;62.96;55.01;74.61;;
64545;Laerm;50936;51.660;5.616;2022-08-19T12:30:48;63.10;50.51;73.23;;
64545;Laerm;50936;51.660;5.616;2022-08-19T12:33:19;61.79;50.38;77.13;;
64545;Laerm;50936;51.660;5.616;2022-08-19T12:35:50;62.64;52.57;73.09;;
64545;Laerm;50936;51.660;5.616;2022-08-19T12:38:18;62.08;48.99;70.54;;
64545;Laerm;50936;51.660;5.616;2022-08-19T12:40:48;62.54;52.21;70.76;;
64545;Laerm;50936;51.660;5.616;2022-08-19T12:43:15;63.07;51.02;72.16;;
64545;Laerm;50936;51.660;5.616;2022-08-19T12:45:43;62.97;51.80;74.13;;
64545;Laerm;50936;51.660;5.616;2022-08-19T12:48:13;63.03;52.08;78.02;;
64545;Laerm;50936;51.660;5.616;2022-08-19T12:51:07;62.29;51.13;74.96;;
64545;Laerm;50936;51.660;5.616;2022-08-19T12:53:35;63.96;52.68;80.01;;
64545;Laerm;50936;51.660;5.616;2022-08-19T12:56:07;62.31;51.17;78.23;;
64545;Laerm;50936;51.660;5.616;2022-08-19T12:58:39;64.00;53.43;74.42;;
64545;Laerm;50936;51.660;5.616;2022-08-19T13:01:17;65.65;51.37;80.63;;
64545;Laerm;50936;51.660;5.616;2022-08-19T13:03:50;62.11;51.99;79.57;;
64545;Laerm;50936;51.660;5.616;2022-08-19T13:06:19;63.79;51.96;71.52;;
64545;Laerm;50936;51.660;5.616;2022-08-19T13:08:47;63.05;52.22;73.51;;
64545;Laerm;50936;51.660;5.616;2022-08-19T13:11:18;62.87;51.67;74.33;;
64545;Laerm;50936;51.660;5.616;2022-08-19T13:13:47;64.58;48.61;78.62;;
64545;Laerm;50936;51.660;5.616;2022-08-19T13:16:15;61.96;50.19;75.32;;
64545;Laerm;50936;51.660;5.616;2022-08-19T13:18:45;63.95;51.87;77.13;;
64545;Laerm;50936;51.660;5.616;2022-08-19T13:21:14;63.82;50.63;78.07;;
64545;Laerm;50936;51.660;5.616;2022-08-19T13:23:42;63.03;51.72;73.99;;
64545;Laerm;50936;51.660;5.616;2022-08-19T13:26:11;62.90;52.80;74.39;;
64545;Laerm;50936;51.660;5.616;2022-08-19T13:28:40;62.62;52.13;75.46;;
64545;Laerm;50936;51.660;5.616;2022-08-19T13:31:41;63.46;54.54;73.32;;
64545;Laerm;50936;51.660;5.616;2022-08-19T13:34:33;63.34;55.06;85.62;;
64545;Laerm;50936;51.660;5.616;2022-08-19T13:37:03;62.83;50.42;77.82;;
64545;Laerm;50936;51.660;5.616;2022-08-19T13:39:35;63.43;49.84;79.29;;
64545;Laerm;50936;51.660;5.616;2022-08-19T13:42:02;61.07;49.83;74.40;;
64545;Laerm;50936;51.660;5.616;2022-08-19T13:44:31;63.77;53.83;79.52;;
64545;Laerm;50936;51.660;5.616;2022-08-19T13:47:04;63.38;52.64;75.25;;
64545;Laerm;50936;51.660;5.616;2022-08-19T13:49:34;63.82;52.52;77.32;;
64545;Laerm;50936;51.660;5.616;2022-08-19T13:52:04;64.82;51.44;83.89;;
64545;Laerm;50936;51.660;5.616;2022-08-19T13:54:32;64.18;55.13;78.85;;
64545;Laerm;50936;51.660;5.616;2022-08-19T13:56:59;66.72;54.32;82.32;;
64545;Laerm;50936;51.660;5.616;2022-08-19T13:59:26;63.87;53.70;78.09;;
64545;Laerm;50936;51.660;5.616;2022-08-19T14:01:52;62.56;53.32;76.71;;
64545;Laerm;50936;51.660;5.616;2022-08-19T14:04:23;65.61;49.65;80.02;;
64545;Laerm;50936;51.660;5.616;2022-08-19T14:06:50;64.99;54.25;86.93;;
64545;Laerm;50936;51.660;5.616;2022-08-19T14:09:17;64.41;54.26;76.51;;
64545;Laerm;50936;51.660;5.616;2022-08-19T14:11:44;64.42;51.22;81.42;;
64545;Laerm;50936;51.660;5.616;2022-08-19T14:14:13;63.34;53.94;83.60;;
64545;Laerm;50936;51.660;5.616;2022-08-19T14:16:42;61.69;51.91;70.06;;
64545;Laerm;50936;51.660;5.616;2022-08-19T14:19:09;63.32;52.29;75.37;;